Time;durP1;ratioP1;P1;durP2;ratioP2;P2;SDS_P1;SDS_P2;PMS_P1;PMS_P2;Temp;Humidity;BMP_temperature;BMP_pressure;BME280_temperature;BME280_humidity;BME280_pressure;Samples;Min_cycle;Max_cycle;Signal;HPM_P1;HPM_P2
2022/08/13 00:01:25;;;;;;;6.40;2.20;;;21.20;70.40;;;18.43;64.98;100640.38;4990810;28;20039;-80
2022/08/13 00:03:55;;;;;;;5.00;2.17;;;21.30;70.80;;;18.40;64.89;100640.84;4993112;28;20121;-79
2022/08/13 00:06:56;;;;;;;5.53;2.20;;;21.30;70.90;;;18.39;65.97;100636.41;4988047;28;20574;-79
2022/08/13 00:09:15;;;;;;;;;;;21.20;70.90;;;18.35;65.84;100637.94;4991603;28;20050;-79
2022/08/13 00:14:32;;;;;;;4.50;1.92;;;21.20;71.90;;;18.27;66.56;100641.84;4966283;28;20058;-79
2022/08/13 00:17:00;;;;;;;;;;;21.20;71.90;;;18.24;66.61;100639.59;4995371;28;20125;-79
2022/08/13 00:19:29;;;;;;;3.53;2.10;;;21.20;71.90;;;18.21;67.15;100640.03;4991026;28;19928;-79
2022/08/13 00:21:59;;;;;;;6.03;2.05;;;21.10;72.20;;;18.17;66.65;100639.66;5001133;28;20120;-79
2022/08/13 00:24:29;;;;;;;4.75;2.42;;;21.10;71.90;;;18.15;66.70;100643.72;5009629;28;20048;-79
2022/08/13 00:26:59;;;;;;;5.32;2.28;;;21.10;71.90;;;18.12;66.87;100635.91;4999593;28;20046;-79
2022/08/13 00:29:27;;;;;;;5.07;2.40;;;21.00;72.00;;;18.12;67.42;100641.41;4973297;28;20140;-79
2022/08/13 00:31:55;;;;;;;4.40;2.17;;;21.00;72.50;;;18.11;67.44;100645.28;4990477;28;20050;-79
2022/08/13 00:34:22;;;;;;;3.85;2.10;;;21.00;72.60;;;18.07;67.63;100647.63;4982977;28;20043;-78
2022/08/13 00:36:51;;;;;;;4.88;2.53;;;21.00;72.80;;;18.07;67.51;100646.81;4988978;28;20158;-79
2022/08/13 00:39:18;;;;;;;4.22;2.08;;;21.00;72.70;;;18.04;67.52;100639.81;4990210;28;20073;-79
2022/08/13 00:41:48;;;;;;;5.38;2.30;;;20.80;72.70;;;18.01;67.65;100633.94;4990780;28;20052;-79
2022/08/13 00:44:18;;;;;;;4.72;2.50;;;20.90;72.90;;;18.01;67.86;100640.31;4990715;28;20052;-79
2022/08/13 00:46:46;;;;;;;6.83;2.77;;;20.90;73.30;;;17.99;68.23;100631.41;4991013;28;20042;-79
2022/08/13 00:49:13;;;;;;;5.63;2.40;;;20.80;73.20;;;17.96;68.16;100635.47;4986211;28;20488;-79
2022/08/13 00:51:42;;;;;;;4.35;2.20;;;20.90;73.40;;;17.95;68.13;100631.06;4988254;28;20053;-79
2022/08/13 00:54:17;;;;;;;3.38;2.10;;;20.80;73.20;;;17.94;68.29;100623.84;4990517;28;20046;-79
2022/08/13 00:56:44;;;;;;;4.00;2.08;;;20.80;73.30;;;17.93;69.02;100627.69;4992834;28;20125;-79
2022/08/13 00:59:13;;;;;;;4.65;2.10;;;20.80;73.60;;;17.92;68.88;100626.00;4990635;28;20047;-79
2022/08/13 01:01:43;;;;;;;5.35;2.17;;;20.80;73.80;;;17.89;68.86;100626.44;4990841;28;20042;-79
2022/08/13 01:04:11;;;;;;;4.22;2.10;;;20.80;73.70;;;17.87;68.71;100630.50;4990609;28;20046;-79
2022/08/13 01:06:38;;;;;;;7.30;2.30;;;20.80;73.70;;;17.83;68.36;100627.34;4987517;28;20039;-79
2022/08/13 01:09:08;;;;;;;6.00;2.28;;;20.70;73.60;;;17.80;68.61;100627.81;5032844;22;20133;-87
2022/08/13 01:11:39;;;;;;;6.68;2.08;;;20.70;73.60;;;17.74;69.44;100624.06;5009590;28;20046;-86
2022/08/13 01:14:07;;;;;;;4.85;2.30;;;20.70;73.90;;;17.74;69.51;100625.97;5009184;28;20659;-87
2022/08/13 01:16:36;;;;;;;4.22;2.28;;;20.70;74.00;;;17.71;69.29;100634.69;5008624;28;20128;-87
2022/08/13 01:19:06;;;;;;;6.60;2.35;;;20.60;74.10;;;17.71;69.89;100629.19;4992727;28;20046;-87
2022/08/13 01:21:39;;;;;;;4.43;2.30;;;20.60;74.10;;;17.70;68.94;100627.50;4993308;28;20034;-86
2022/08/13 01:24:10;;;;;;;8.55;2.50;;;20.60;73.90;;;17.67;69.85;100627.94;4999283;28;20042;-87
2022/08/13 01:26:39;;;;;;;3.87;2.00;;;20.60;74.30;;;17.62;69.97;100627.81;4989216;28;20053;-87
2022/08/13 01:29:08;;;;;;;4.60;2.30;;;20.60;74.60;;;17.58;70.26;100631.00;4990189;28;20292;-87
2022/08/13 01:31:35;;;;;;;7.07;1.85;;;20.60;74.60;;;17.55;69.88;100625.97;4990104;28;20145;-86
2022/08/13 01:34:04;;;;;;;6.45;2.15;;;20.50;74.50;;;17.54;69.48;100624.28;4990208;28;20073;-86
2022/08/13 01:36:32;;;;;;;6.28;2.50;;;20.50;74.20;;;17.51;70.16;100618.38;4996618;28;20053;-87
2022/08/13 01:39:03;;;;;;;5.63;2.20;;;20.50;74.50;;;17.53;70.78;100621.75;5004826;28;20046;-86
2022/08/13 01:41:30;;;;;;;3.50;2.20;;;20.50;75.10;;;17.50;71.37;100623.06;4993789;28;20089;-87
2022/08/13 01:44:04;;;;;;;4.70;2.30;;;20.40;75.60;;;17.48;72.19;100619.69;4992663;28;20511;-86
2022/08/13 01:50:28;;;;;;;3.80;2.17;;;20.40;75.80;;;17.45;72.19;100619.31;4998382;28;20062;-87
2022/08/13 01:52:07;;;;;;;5.38;2.40;;;20.40;76.10;;;17.39;72.63;100607.31;4993761;28;20096;-87
2022/08/13 01:54:37;;;;;;;4.43;2.40;;;20.40;76.10;;;17.35;72.74;100609.66;4997146;28;20088;-87
2022/08/13 01:57:08;;;;;;;6.65;2.60;;;20.40;76.40;;;17.30;72.65;100612.25;4987469;28;20064;-87
2022/08/13 01:59:38;;;;;;;5.68;2.38;;;20.30;76.30;;;17.32;72.18;100614.78;4985854;28;20108;-86
2022/08/13 02:02:07;;;;;;;4.20;2.47;;;20.30;76.10;;;17.27;72.66;100620.09;4993277;28;20544;-86
2022/08/13 02:04:35;;;;;;;3.50;2.10;;;20.30;76.20;;;17.28;72.27;100619.03;4993021;28;20117;-87
2022/08/13 02:07:02;;;;;;;3.83;2.17;;;20.30;76.30;;;17.26;72.45;100621.19;4993394;28;20444;-87
2022/08/13 02:09:31;;;;;;;6.38;2.20;;;20.20;76.10;;;17.25;73.23;100616.75;4991492;28;20078;-86
2022/08/13 02:12:00;;;;;;;4.43;2.10;;;20.20;76.50;;;17.23;73.53;100616.13;4999331;28;20042;-86
2022/08/13 02:14:29;;;;;;;6.30;2.55;;;20.20;76.90;;;17.19;73.05;100619.34;5002229;28;20125;-87
2022/08/13 02:16:56;;;;;;;5.07;2.40;;;20.20;76.80;;;17.14;73.20;100615.59;4993225;28;20121;-87
2022/08/13 02:19:23;;;;;;;4.53;2.33;;;20.10;76.70;;;17.12;73.43;100621.31;4992895;28;20070;-87
2022/08/13 02:21:51;;;;;;;10.07;2.58;;;20.10;76.90;;;17.10;73.76;100611.63;4977324;28;20047;-86
2022/08/13 02:24:19;;;;;;;5.32;2.22;;;20.10;77.20;;;17.03;74.27;100617.16;4983430;28;20510;-86
2022/08/13 02:26:46;;;;;;;6.70;2.60;;;20.10;77.30;;;17.00;74.14;100615.72;4975702;28;20495;-87
2022/08/13 02:29:15;;;;;;;5.10;2.50;;;20.00;77.20;;;16.97;74.07;100623.56;4995366;28;20046;-86
2022/08/13 02:31:43;;;;;;;4.15;2.47;;;20.00;77.20;;;16.98;74.10;100626.09;4998037;28;20117;-86
2022/08/13 02:34:12;;;;;;;5.00;2.30;;;20.00;77.30;;;16.96;74.47;100625.47;4992739;28;20035;-86
2022/08/13 02:36:40;;;;;;;4.35;2.20;;;20.00;77.70;;;16.91;75.10;100630.78;4992622;28;20117;-86
2022/08/13 02:39:10;;;;;;;3.60;2.15;;;20.00;78.00;;;16.92;74.84;100631.63;4994495;28;20038;-86
2022/08/13 02:41:42;;;;;;;6.53;2.50;;;20.00;77.90;;;16.86;75.23;100630.63;4992701;28;20050;-86
2022/08/13 02:44:12;;;;;;;4.80;2.30;;;20.00;78.00;;;16.84;75.75;100631.91;4992619;28;20072;-86
2022/08/13 02:46:43;;;;;;;4.93;2.77;;;19.90;78.10;;;16.86;75.37;100627.88;4996930;28;20042;-86
2022/08/13 02:49:12;;;;;;;6.28;2.60;;;19.90;78.40;;;16.83;75.44;100635.72;4992131;28;20051;-86
2022/08/13 02:51:39;;;;;;;10.57;2.70;;;19.90;78.40;;;16.81;75.69;100624.91;4991229;28;20038;-86
2022/08/13 02:54:07;;;;;;;6.13;2.67;;;19.90;78.30;;;16.77;75.84;100638.28;4992516;28;20121;-86
2022/08/13 02:56:36;;;;;;;7.38;2.60;;;19.80;78.30;;;16.76;75.54;100633.00;4992593;28;20049;-86
2022/08/13 02:59:08;;;;;;;4.65;2.80;;;19.80;78.20;;;16.74;76.01;100638.72;4998028;28;20558;-86
2022/08/13 03:01:38;;;;;;;3.83;2.42;;;19.80;78.50;;;16.73;76.58;100634.25;4992274;28;20050;-86
2022/08/13 03:04:07;;;;;;;6.82;2.95;;;19.80;78.70;;;16.73;75.64;100634.25;4991820;28;20050;-87
2022/08/13 03:06:34;;;;;;;5.43;2.58;;;19.80;78.60;;;16.70;75.94;100636.66;4997931;28;20042;-86
2022/08/13 03:09:02;;;;;;;4.45;2.53;;;19.80;78.50;;;16.65;76.39;100636.47;4991814;28;20405;-86
2022/08/13 03:11:30;;;;;;;4.90;3.13;;;19.70;78.70;;;16.63;76.37;100631.19;4992426;28;20038;-86
2022/08/13 03:14:04;;;;;;;4.80;2.40;;;19.70;78.80;;;16.59;76.22;100643.69;4991994;28;20081;-86
2022/08/13 03:16:32;;;;;;;5.55;2.95;;;19.70;78.80;;;16.56;76.25;100644.09;4992088;28;20682;-86
2022/08/13 03:19:00;;;;;;;5.60;2.90;;;19.70;78.70;;;16.55;76.65;100637.78;4991979;28;20045;-86
2022/08/13 03:21:33;;;;;;;4.18;2.83;;;19.70;79.00;;;16.54;77.25;100632.50;4998619;28;20046;-86
2022/08/13 03:24:00;;;;;;;5.28;2.70;;;19.60;79.30;;;16.51;77.79;100631.06;5001821;28;20048;-86
2022/08/13 03:26:28;;;;;;;5.28;2.55;;;19.60;79.80;;;16.52;78.12;100642.88;4994235;28;20496;-86
2022/08/13 03:28:56;;;;;;;5.68;2.90;;;19.60;79.80;;;16.51;78.10;100639.28;4991722;28;20568;-86
2022/08/13 03:31:24;;;;;;;5.88;2.72;;;19.60;80.00;;;16.47;78.71;100634.44;4992220;28;20512;-86
2022/08/13 03:33:53;;;;;;;5.50;2.92;;;19.60;80.10;;;16.42;78.50;100640.59;4991686;28;20042;-86
2022/08/13 03:36:21;;;;;;;5.38;2.97;;;19.50;80.20;;;16.38;79.03;100642.94;4992867;28;20044;-86
2022/08/13 03:38:49;;;;;;;6.47;2.70;;;19.60;80.50;;;16.34;79.08;100638.97;5009360;28;20038;-86
2022/08/13 03:41:17;;;;;;;5.50;3.03;;;19.50;80.50;;;16.30;79.50;100643.22;5011280;28;20046;-86
2022/08/13 03:43:47;;;;;;;5.35;2.90;;;19.50;80.60;;;16.29;79.91;100637.94;4995883;28;20399;-86
2022/08/13 03:46:17;;;;;;;7.18;3.28;;;19.50;81.00;;;16.23;80.30;100640.50;4991404;28;20122;-86
2022/08/13 03:48:45;;;;;;;10.00;3.23;;;19.40;80.90;;;16.22;79.72;100637.94;4973747;28;20505;-86
2022/08/13 03:51:13;;;;;;;5.85;2.95;;;19.40;81.00;;;16.18;79.78;100632.09;4990288;28;20043;-85
2022/08/13 03:53:41;;;;;;;6.43;3.10;;;19.40;80.80;;;16.23;80.11;100636.91;4999834;28;20124;-83
2022/08/13 03:56:11;;;;;;;6.45;2.80;;;19.40;81.10;;;16.20;80.09;100634.59;5010768;28;20042;-83
2022/08/13 03:58:38;;;;;;;4.55;2.85;;;19.30;81.10;;;16.16;80.49;100636.09;4997987;28;20129;-89
2022/08/13 04:01:06;;;;;;;7.95;3.05;;;19.30;81.40;;;16.14;80.25;100640.97;4991437;28;20050;-81
2022/08/13 04:03:37;;;;;;;15.00;3.17;;;19.30;81.20;;;16.11;80.34;100636.75;4990180;28;20117;-81
2022/08/13 04:06:08;;;;;;;6.15;3.03;;;19.30;81.30;;;16.11;80.85;100635.94;4990300;28;20042;-80
2022/08/13 04:08:37;;;;;;;5.03;3.20;;;19.30;81.50;;;16.08;80.62;100637.19;4988188;28;20042;-80
2022/08/13 04:11:08;;;;;;;4.78;3.13;;;19.30;81.50;;;16.06;80.86;100632.97;4993156;28;20500;-80
2022/08/13 04:13:39;;;;;;;5.55;3.05;;;19.20;81.60;;;16.06;81.58;100630.25;4991466;28;20411;-80
2022/08/13 04:16:10;;;;;;;5.15;3.08;;;19.20;82.00;;;16.00;81.68;100635.53;4990664;28;20054;-80
2022/08/13 04:18:38;;;;;;;6.40;2.97;;;19.20;82.00;;;16.02;81.78;100638.06;4991078;28;20124;-80
2022/08/13 04:21:08;;;;;;;5.47;3.00;;;19.20;82.30;;;16.02;81.71;100638.06;4989912;28;20512;-80
2022/08/13 04:23:38;;;;;;;3.65;2.55;;;19.20;82.10;;;15.99;82.10;100644.84;4989781;28;20038;-80
2022/08/13 04:26:05;;;;;;;4.60;2.85;;;19.10;82.50;;;16.02;82.03;100643.56;4999904;28;20109;-80
2022/08/13 04:28:33;;;;;;;5.47;2.97;;;19.10;82.40;;;16.01;81.93;100641.84;5010798;28;20447;-80
2022/08/13 04:31:02;;;;;;;9.35;3.42;;;19.10;82.50;;;16.02;82.06;100647.13;5002398;28;20038;-80
2022/08/13 04:33:29;;;;;;;5.75;3.30;;;19.10;82.60;;;15.99;82.41;100639.34;4991010;28;20088;-80
2022/08/13 04:35:57;;;;;;;6.32;3.40;;;19.10;82.80;;;16.02;82.78;100641.66;4990406;28;20038;-80
2022/08/13 04:38:24;;;;;;;6.22;3.08;;;19.10;83.10;;;16.01;82.83;100636.38;4990902;28;20118;-80
2022/08/13 04:40:52;;;;;;;6.05;3.35;;;19.10;83.00;;;16.05;82.67;100640.38;4989380;28;20104;-80
2022/08/13 04:43:19;;;;;;;5.25;2.83;;;19.10;83.10;;;16.07;83.22;100648.38;5001245;28;20046;-80
2022/08/13 04:45:46;;;;;;;6.47;3.30;;;19.10;83.30;;;16.09;82.99;100646.25;4990004;28;20046;-80
2022/08/13 04:48:16;;;;;;;5.82;3.35;;;19.10;83.40;;;16.14;82.86;100643.72;4990529;28;20064;-80
2022/08/13 04:50:48;;;;;;;5.35;3.28;;;19.10;83.50;;;16.24;82.82;100635.88;4992499;28;20043;-80
2022/08/13 04:53:23;;;;;;;;;;;19.10;83.60;;;16.28;82.99;100636.25;4991379;28;20038;-80
2022/08/13 04:55:51;;;;;;;5.22;3.13;;;19.10;83.90;;;16.33;83.39;100645.50;4972506;28;20349;-80
2022/08/13 04:58:18;;;;;;;5.43;3.22;;;19.10;84.00;;;16.35;83.65;100637.88;4997014;28;20053;-80
2022/08/13 05:00:46;;;;;;;5.63;3.50;;;19.10;84.40;;;16.36;84.15;100639.59;5000404;28;20053;-81
2022/08/13 05:03:17;;;;;;;5.35;3.17;;;19.10;84.70;;;16.33;84.50;100645.50;4990170;28;20121;-88
2022/08/13 05:05:47;;;;;;;7.95;3.63;;;19.10;85.00;;;16.34;84.82;100649.13;4990338;28;20048;-85
2022/08/13 05:08:16;;;;;;;6.03;3.20;;;19.20;85.20;;;16.34;85.13;100651.88;4972860;28;20415;-86
2022/08/13 05:10:45;;;;;;;7.32;3.35;;;19.10;85.40;;;16.38;84.93;100653.94;4993001;28;20516;-85
2022/08/13 05:13:25;;;;;;;9.18;3.38;;;19.20;85.50;;;16.51;84.82;100646.69;4995310;28;20046;-85
2022/08/13 05:15:55;;;;;;;9.57;3.35;;;19.20;85.80;;;16.62;84.73;100654.25;5005439;28;20056;-84
2022/08/13 05:18:25;;;;;;;6.72;3.38;;;19.20;85.70;;;16.67;84.69;100656.31;5012990;28;20103;-84
2022/08/13 05:20:54;;;;;;;7.35;3.63;;;19.20;85.70;;;16.77;84.87;100654.78;4998010;28;20494;-85
2022/08/13 05:23:22;;;;;;;6.28;3.42;;;19.30;85.80;;;16.92;84.03;100659.13;4974831;28;20054;-85
2022/08/13 05:25:50;;;;;;;12.00;3.40;;;19.30;85.80;;;17.05;81.88;100653.50;4974398;28;20049;-86
2022/08/13 05:28:18;;;;;;;7.95;3.63;;;19.40;85.00;;;17.30;80.15;100656.25;4989191;28;20114;-85
2022/08/13 05:30:46;;;;;;;6.18;3.38;;;19.40;84.10;;;17.39;80.29;100660.41;4994970;28;20048;-86
2022/08/13 05:33:16;;;;;;;7.93;3.58;;;19.50;84.50;;;17.55;79.50;100663.63;5005572;28;20042;-86
2022/08/13 05:35:47;;;;;;;5.25;3.28;;;19.50;84.10;;;17.58;79.16;100657.69;5013330;28;20042;-87
2022/08/13 05:38:16;;;;;;;8.75;3.63;;;19.60;84.40;;;17.66;79.04;100665.66;5010576;28;20050;-87
2022/08/13 05:40:44;;;;;;;8.07;3.55;;;19.70;84.10;;;17.79;79.29;100659.16;4975986;28;20156;-85
2022/08/13 05:43:13;;;;;;;8.82;3.50;;;19.70;84.20;;;17.89;78.24;100659.50;4993826;28;20042;-86
2022/08/13 05:45:41;;;;;;;7.35;3.60;;;19.70;83.90;;;17.86;80.21;100659.09;4993674;28;20393;-86
2022/08/13 05:48:09;;;;;;;13.23;3.97;;;19.80;85.30;;;17.92;79.47;100652.69;4993117;28;20049;-85
2022/08/13 05:50:37;;;;;;;8.38;3.30;;;19.80;84.90;;;18.02;79.97;100657.66;4989915;28;20416;-88
2022/08/13 05:53:12;;;;;;;7.75;3.22;;;19.90;85.10;;;18.11;80.06;100667.31;5013438;28;20037;-87
2022/08/13 05:55:41;;;;;;;6.05;3.22;;;20.00;85.20;;;18.23;79.79;100659.94;5002826;28;20097;-87
2022/08/13 05:58:12;;;;;;;7.22;3.33;;;20.00;85.10;;;18.30;79.47;100657.09;4993718;28;20167;-88
2022/08/13 06:03:27;;;;;;;4.90;2.88;;;20.10;85.10;;;18.54;77.14;100663.53;4975914;28;20511;-88
2022/08/13 06:05:55;;;;;;;5.82;3.15;;;20.20;84.30;;;18.69;76.62;100657.59;4998562;28;20046;-83
2022/08/13 06:08:31;;;;;;;8.18;3.08;;;20.30;83.70;;;18.82;76.53;100659.34;4993584;28;20050;-84
2022/08/13 06:10:59;;;;;;;7.22;3.00;;;20.40;83.70;;;18.87;76.51;100657.56;4996998;28;20136;-84
2022/08/13 06:13:28;;;;;;;9.57;3.40;;;20.40;84.10;;;18.94;76.07;100655.56;5013047;28;20100;-85
2022/08/13 06:16:00;;;;;;;7.65;2.80;;;20.40;83.80;;;19.05;73.43;100664.91;5008273;28;20109;-84
2022/08/13 06:18:30;;;;;;;8.23;2.95;;;20.50;82.90;;;19.20;71.51;100663.63;4993243;28;20583;-84
2022/08/13 06:21:00;;;;;;;7.63;3.13;;;20.50;81.60;;;19.36;71.64;100667.59;4991162;28;20412;-85
2022/08/13 06:23:32;;;;;;;7.82;3.10;;;20.60;81.30;;;19.47;70.48;100664.00;5010506;28;20709;-84
2022/08/13 06:26:01;;;;;;;6.32;3.30;;;20.70;81.10;;;19.69;71.43;100661.47;4978013;28;20051;-84
2022/08/13 06:28:30;;;;;;;5.22;3.20;;;20.80;81.80;;;20.08;68.16;100662.63;4980608;28;20082;-84
2022/08/13 06:31:01;;;;;;;13.73;3.03;;;20.90;80.40;;;20.41;67.59;100663.00;4973332;28;20144;-84
2022/08/13 06:33:31;;;;;;;5.22;2.78;;;21.00;80.40;;;20.69;67.35;100665.81;4975931;28;20042;-85
2022/08/13 06:36:02;;;;;;;6.23;2.73;;;21.10;80.60;;;20.91;66.34;100667.84;4974497;28;21004;-85
2022/08/13 06:38:34;;;;;;;8.52;3.20;;;21.20;80.10;;;21.13;65.83;100664.31;4975711;28;20118;-85
2022/08/13 06:41:03;;;;;;;12.70;3.00;;;21.30;80.00;;;21.28;64.98;100668.22;4974228;28;20043;-84
2022/08/13 06:43:32;;;;;;;6.45;3.30;;;21.40;80.00;;;21.38;64.20;100670.28;4974424;28;20160;-82
2022/08/13 06:46:03;;;;;;;7.65;2.80;;;21.40;79.70;;;21.61;61.78;100663.75;4991550;28;20415;-83
2022/08/13 06:48:32;;;;;;;6.53;2.78;;;21.50;78.40;;;21.76;60.71;100662.28;4992288;28;20579;-83
2022/08/13 06:51:00;;;;;;;11.68;3.35;;;21.70;77.60;;;21.85;61.93;100669.88;4989984;28;20492;-83
2022/08/13 06:53:27;;;;;;;7.85;2.80;;;21.80;78.30;;;21.98;59.61;100667.84;4994924;28;20444;-85
2022/08/13 06:55:56;;;;;;;6.10;2.60;;;21.80;76.90;;;22.06;59.15;100673.75;4990716;28;20054;-83
2022/08/13 06:58:28;;;;;;;8.50;3.17;;;21.90;76.10;;;22.11;58.06;100670.25;4993221;28;20066;-84
2022/08/13 07:00:58;;;;;;;9.27;3.38;;;22.00;75.40;;;22.14;59.55;100669.72;4998550;28;20286;-90
2022/08/13 07:03:28;;;;;;;4.45;2.40;;;22.00;76.70;;;22.17;58.04;100671.97;4987096;28;20050;-90
2022/08/13 07:05:57;;;;;;;7.75;2.72;;;22.10;74.80;;;22.19;58.65;100668.94;4991759;28;20045;-91
2022/08/13 07:08:26;;;;;;;6.65;2.60;;;22.10;75.40;;;22.24;59.70;100671.78;4990905;28;20046;-91
2022/08/13 07:13:40;;;;;;;5.38;2.40;;;22.30;76.30;;;22.41;59.61;100671.75;4973504;28;20073;-90
2022/08/13 07:16:09;;;;;;;7.15;2.70;;;22.30;76.40;;;22.49;59.56;100671.28;4988068;28;20093;-90
2022/08/13 07:18:38;;;;;;;9.52;2.70;;;22.50;76.60;;;22.55;59.95;100664.69;4996321;28;20076;-89
2022/08/13 07:21:11;;;;;;;10.50;2.70;;;22.50;76.90;;;22.64;59.24;100674.22;5004970;28;20057;-90
2022/08/13 07:23:39;;;;;;;8.07;3.00;;;22.50;76.90;;;22.74;57.54;100673.47;4992156;28;20189;-91
2022/08/13 07:26:09;;;;;;;7.72;2.72;;;22.60;75.20;;;22.81;56.71;100673.28;4987934;28;20179;-89
2022/08/13 07:28:37;;;;;;;7.40;2.47;;;22.70;74.40;;;22.86;57.39;100678.03;4972020;28;20136;-88
2022/08/13 07:31:06;;;;;;;5.55;2.40;;;22.70;74.50;;;22.95;58.28;100674.50;4990691;28;20576;-85
2022/08/13 07:33:36;;;;;;;7.03;2.42;;;22.80;75.50;;;23.05;55.68;100672.97;4989916;28;20038;-89
2022/08/13 07:36:05;;;;;;;4.88;2.42;;;22.80;73.50;;;23.12;56.60;100676.38;4982544;28;20136;-87
2022/08/13 07:38:32;;;;;;;10.07;3.15;;;22.90;74.40;;;23.22;57.53;100671.72;4990926;28;20121;-87
2022/08/13 07:41:03;;;;;;;4.68;2.45;;;23.00;75.30;;;23.32;57.14;100671.00;4991866;28;20049;-89
2022/08/13 07:43:36;;;;;;;4.85;2.20;;;23.00;74.70;;;23.41;57.18;100676.88;4954716;28;20043;-77
2022/08/13 07:46:07;;;;;;;7.97;2.25;;;23.10;75.40;;;23.53;54.63;100673.88;4991599;28;20042;-79
2022/08/13 07:48:36;;;;;;;;;;;23.20;72.70;;;23.60;53.50;100675.34;4990602;28;20057;-79
2022/08/13 07:51:06;;;;;;;8.55;2.47;;;23.30;72.20;;;23.69;52.22;100672.91;4989168;28;20380;-78
2022/08/13 07:53:35;;;;;;;6.68;2.10;;;23.30;70.80;;;23.73;52.20;100674.03;4992425;28;20051;-81
2022/08/13 07:56:06;;;;;;;3.78;2.10;;;23.40;70.40;;;23.75;52.03;100669.03;4992291;28;20038;-79
2022/08/13 07:58:37;;;;;;;4.55;1.95;;;23.40;69.80;;;23.85;56.39;100675.81;4988787;28;20448;-79
2022/08/13 08:01:06;;;;;;;18.80;2.60;;;23.50;74.00;;;23.87;54.04;100668.84;4994279;28;20042;-80
2022/08/13 08:03:42;;;;;;;5.40;2.20;;;23.60;71.40;;;23.97;51.38;100663.38;4989639;28;20039;-80
2022/08/13 08:06:14;;;;;;;6.03;2.15;;;23.60;69.30;;;24.04;52.48;100665.88;5006656;28;20104;-80
2022/08/13 08:08:42;;;;;;;6.50;1.88;;;23.70;70.00;;;24.14;50.31;100677.06;4988168;28;20133;-80
2022/08/13 08:12:30;;;;;;;4.90;2.00;;;23.80;68.30;;;24.16;49.80;100671.22;4994127;28;20110;-83
2022/08/13 08:14:00;;;;;;;3.35;1.80;;;23.80;67.50;;;24.23;52.29;100665.41;4989190;28;20523;-79
2022/08/13 08:16:30;;;;;;;5.55;2.10;;;23.90;70.00;;;24.36;51.40;100670.47;4987448;28;20097;-80
2022/08/13 08:19:00;;;;;;;4.78;1.90;;;24.00;69.30;;;24.47;49.83;100666.59;4988610;28;20138;-79
2022/08/13 08:21:28;;;;;;;5.07;2.00;;;24.10;68.80;;;24.47;49.21;100672.19;5007312;28;20050;-80
2022/08/13 08:23:59;;;;;;;6.40;2.00;;;24.10;66.80;;;24.57;49.41;100658.31;4989027;28;20403;-78
2022/08/13 08:26:29;;;;;;;6.68;1.95;;;24.20;67.60;;;24.68;51.71;100666.69;4995352;28;20074;-82
2022/08/13 08:28:57;;;;;;;5.85;1.98;;;24.30;69.40;;;24.73;50.36;100672.25;4987679;28;20038;-82
2022/08/13 08:31:28;;;;;;;4.05;1.90;;;24.40;68.00;;;24.83;48.99;100672.28;4992316;28;20046;-80
2022/08/13 08:34:00;;;;;;;4.83;2.00;;;24.40;66.50;;;24.88;48.15;100674.22;4997725;28;20113;-82
2022/08/13 08:36:29;;;;;;;6.03;2.13;;;24.50;66.20;;;24.86;46.93;100677.28;4991877;28;20042;-81
2022/08/13 08:44:30;;;;;;;4.30;1.95;;;24.50;64.40;;;25.09;49.07;100667.59;5002097;28;20511;-78
2022/08/13 08:47:00;;;;;;;;;;;24.60;67.20;;;25.15;46.42;100665.59;4986647;28;20485;-78
2022/08/13 08:49:30;;;;;;;3.67;1.65;;;24.70;65.70;;;25.27;45.78;100668.16;4982221;28;19929;-79
2022/08/13 08:51:59;;;;;;;6.67;1.77;;;24.70;63.40;;;25.29;43.73;100663.16;4994005;28;20042;-79
2022/08/13 08:54:27;;;;;;;6.60;1.50;;;24.70;61.10;;;25.24;44.49;100657.56;4990354;28;20500;-79
2022/08/13 08:56:54;;;;;;;3.97;1.80;;;24.80;61.30;;;25.35;42.35;100665.63;4990853;28;20051;-79
2022/08/13 08:59:23;;;;;;;6.22;1.58;;;24.80;59.40;;;25.35;43.75;100660.06;4982969;28;20586;-79
2022/08/13 09:01:52;;;;;;;6.13;1.80;;;24.90;60.00;;;25.46;43.50;100662.84;4988761;28;20049;-79
2022/08/13 09:04:22;;;;;;;5.50;1.90;;;25.00;60.40;;;25.32;43.07;100655.06;4999767;28;20093;-79
2022/08/13 09:06:51;;;;;;;4.00;1.70;;;25.00;59.20;;;25.30;44.48;100656.44;4990383;28;20042;-79
2022/08/13 09:09:19;;;;;;;4.18;1.67;;;25.00;60.60;;;25.36;45.51;100655.34;4998154;28;20042;-79
2022/08/13 09:11:49;;;;;;;3.90;1.60;;;25.10;61.80;;;25.50;44.45;100648.06;5003576;28;20046;-79
2022/08/13 09:14:18;;;;;;;4.60;1.52;;;25.20;61.00;;;25.56;44.96;100646.09;5000665;28;20522;-79
2022/08/13 09:16:46;;;;;;;4.15;1.60;;;25.30;61.30;;;25.59;43.26;100645.56;5006650;28;20116;-79
2022/08/13 09:19:14;;;;;;;5.20;1.50;;;25.30;59.80;;;25.66;41.80;100643.28;5002583;28;20038;-79
2022/08/13 09:21:47;;;;;;;5.80;1.67;;;25.30;57.50;;;25.66;41.85;100648.84;5009906;28;20046;-79
2022/08/13 09:24:16;;;;;;;4.50;1.42;;;25.40;57.60;;;25.63;40.81;100632.72;5009708;28;20061;-80
2022/08/13 09:26:47;;;;;;;4.13;1.50;;;25.40;56.30;;;25.71;40.43;100634.91;5010076;28;20061;-80
2022/08/13 09:29:18;;;;;;;4.75;1.50;;;25.40;56.20;;;25.77;41.65;100634.91;5002942;28;20527;-83
2022/08/13 09:31:47;;;;;;;;;;;25.40;57.60;;;25.80;40.73;100637.13;5001926;28;20045;-86
2022/08/13 09:34:15;;;;;;;3.53;1.75;;;25.40;56.60;;;25.77;40.50;100638.53;5009784;28;19976;-84
2022/08/13 09:36:43;;;;;;;3.17;1.67;;;25.40;56.40;;;25.79;41.03;100627.91;5009795;28;20389;-86
2022/08/13 09:39:30;;;;;;;3.30;1.40;;;25.50;56.70;;;25.90;40.30;100631.53;4992305;28;20046;-84
2022/08/13 09:42:00;;;;;;;5.22;1.88;;;25.50;56.20;;;25.89;40.10;100635.41;5009961;28;20145;-85
2022/08/13 09:44:28;;;;;;;3.65;1.58;;;25.50;55.90;;;25.94;41.62;100627.06;5009714;28;20132;-84
2022/08/13 09:46:57;;;;;;;3.67;1.55;;;25.60;57.70;;;26.01;40.92;100624.81;4997068;28;20046;-85
2022/08/13 09:49:25;;;;;;;3.50;1.83;;;25.60;56.70;;;26.11;40.21;100630.34;4992185;28;20038;-86
2022/08/13 09:51:52;;;;;;;4.95;1.90;;;25.60;56.20;;;26.12;39.87;100618.06;5009809;28;20046;-82
2022/08/13 09:54:23;;;;;;;3.15;1.80;;;25.60;56.70;;;26.04;40.70;100621.44;5009577;28;20042;-81
2022/08/13 09:56:50;;;;;;;4.20;1.80;;;25.70;56.20;;;26.07;40.17;100615.28;5007440;28;20096;-84
2022/08/13 09:59:19;;;;;;;5.65;1.80;;;25.70;56.00;;;26.14;40.13;100621.41;5013532;28;20125;-83
2022/08/13 10:01:49;;;;;;;3.78;1.88;;;25.70;56.20;;;26.17;39.14;100619.16;5003780;28;20699;-91
2022/08/13 10:04:18;;;;;;;5.77;1.90;;;25.70;54.80;;;26.19;39.47;100622.50;4968562;28;20038;-79
2022/08/13 10:06:46;;;;;;;4.03;1.70;;;25.80;55.10;;;25.97;40.05;100609.78;5001223;28;20294;-88
2022/08/13 10:09:14;;;;;;;9.75;2.03;;;25.70;54.60;;;26.03;38.92;100603.06;4998139;28;20045;-83
2022/08/13 10:11:43;;;;;;;3.95;2.03;;;25.70;54.30;;;26.07;39.55;100603.31;4995521;28;20117;-76
2022/08/13 10:14:10;;;;;;;4.97;2.30;;;25.70;54.80;;;26.02;40.10;100606.94;4993344;28;20053;-76
2022/08/13 10:16:37;;;;;;;5.18;1.80;;;25.80;55.20;;;26.06;40.17;100602.47;4996008;28;20448;-85
2022/08/13 10:19:08;;;;;;;3.55;1.55;;;25.80;55.00;;;26.05;40.04;100595.22;4977400;28;20041;-86
2022/08/13 10:21:35;;;;;;;4.30;1.70;;;25.90;54.40;;;26.17;38.76;100599.63;4972830;28;20042;-86
2022/08/13 10:24:03;;;;;;;5.68;1.80;;;25.80;53.70;;;26.11;41.00;100594.06;4988906;28;20404;-86
2022/08/13 10:26:31;;;;;;;4.00;1.70;;;25.80;55.60;;;26.08;39.41;100589.09;4993949;28;20038;-86
2022/08/13 10:28:59;;;;;;;4.32;1.55;;;25.80;54.40;;;26.23;39.68;100584.53;4995650;28;20408;-86
2022/08/13 10:31:28;;;;;;;4.32;1.92;;;25.90;54.90;;;26.12;38.48;100583.75;4979268;28;20594;-90
2022/08/13 10:33:55;;;;;;;4.20;1.65;;;25.90;52.80;;;26.21;39.23;100581.19;4994155;28;20046;-81
2022/08/13 10:36:22;;;;;;;6.82;1.60;;;25.90;54.10;;;26.28;39.74;100582.53;4985379;28;20053;-82
2022/08/13 10:38:50;;;;;;;4.15;1.77;;;25.90;54.70;;;26.27;37.38;100574.44;5000208;28;20153;-81